createdAt,value
2017-04-04T00:00:06.061Z,14.09
2017-04-04T00:00:27.812Z,14.05
2017-04-04T00:00:54.292Z,13.99
2017-04-04T00:01:16.061Z,13.94
2017-04-04T00:01:37.767Z,14.05
2017-04-04T00:02:09.013Z,14.07
2017-04-04T00:02:30.726Z,14.04
2017-04-04T00:02:52.508Z,14.04
2017-04-04T00:03:28.555Z,13.99
2017-04-04T00:03:50.770Z,14.06
2017-04-04T00:04:12.568Z,14.10
2017-04-04T00:04:43.829Z,14.07
2017-04-04T00:05:05.589Z,13.95
2017-04-04T00:05:32.153Z,13.91
2017-04-04T00:05:53.869Z,13.94
2017-04-04T00:06:20.381Z,14.06
2017-04-04T00:06:42.100Z,13.96
2017-04-04T00:07:08.600Z,13.85
2017-04-04T00:07:30.331Z,13.90
2017-04-04T00:07:56.815Z,13.99
2017-04-04T00:08:18.623Z,13.93
2017-04-04T00:08:40.333Z,13.78
2017-04-04T00:09:02.048Z,13.41
2017-04-04T00:09:28.662Z,13.04
2017-04-04T00:09:50.393Z,13.23
2017-04-04T00:10:12.103Z,13.27
2017-04-04T00:10:33.818Z,13.31
2017-04-04T00:10:55.525Z,13.44
2017-04-04T00:11:31.575Z,13.29
2017-04-04T00:11:54.837Z,13.00
2017-04-04T00:12:21.447Z,12.78
2017-04-04T00:12:43.162Z,12.64
2017-04-04T00:13:09.645Z,12.65
2017-04-04T00:13:31.369Z,12.61
2017-04-04T00:13:53.118Z,12.53
2017-04-04T00:14:24.377Z,12.72
2017-04-04T00:14:46.082Z,12.98
2017-04-04T00:15:17.394Z,13.24
2017-04-04T00:15:39.093Z,13.36
2017-04-04T00:16:05.576Z,13.52
2017-04-04T00:16:27.291Z,13.61
2017-04-04T00:16:53.772Z,13.67
2017-04-04T00:17:20.279Z,13.68
2017-04-04T00:17:46.778Z,13.64
2017-04-04T00:18:08.593Z,13.61
2017-04-04T00:18:35.063Z,13.64
2017-04-04T00:18:56.767Z,13.69
2017-04-04T00:19:23.294Z,13.79
2017-04-04T00:19:45.002Z,13.85
2017-04-04T00:20:11.492Z,13.75
2017-04-04T00:20:33.215Z,13.72
2017-04-04T00:20:54.928Z,13.85
2017-04-04T00:21:57.424Z,13.74
2017-04-04T00:22:28.675Z,13.69
2017-04-04T00:22:50.397Z,13.71
2017-04-04T00:23:26.422Z,13.73
2017-04-04T00:23:48.667Z,13.62
2017-04-04T00:24:15.149Z,13.68
2017-04-04T00:24:46.443Z,13.80
2017-04-04T00:25:08.167Z,13.75
2017-04-04T00:25:29.906Z,13.77
2017-04-04T00:25:51.615Z,13.77
2017-04-04T00:26:13.394Z,13.90
2017-04-04T00:26:44.657Z,13.78
2017-04-04T00:27:06.376Z,13.80
2017-04-04T00:27:32.976Z,13.69
2017-04-04T00:27:54.748Z,13.65
2017-04-04T00:28:57.294Z,13.61
2017-04-04T00:29:18.998Z,13.72
2017-04-04T00:29:40.726Z,13.73
2017-04-04T00:30:16.878Z,13.75
2017-04-04T00:30:39.146Z,13.78
2017-04-04T00:31:00.869Z,13.90
2017-04-04T00:32:08.140Z,13.91
2017-04-04T00:32:29.835Z,13.93
2017-04-04T00:33:32.346Z,13.60
2017-04-04T00:33:54.057Z,13.66
2017-04-04T00:35:01.337Z,13.71
2017-04-04T00:35:23.067Z,13.76
2017-04-04T00:35:59.227Z,13.85
2017-04-04T00:36:21.691Z,13.85
2017-04-04T00:36:46.120Z,13.78
2017-04-04T00:37:07.886Z,13.89
2017-04-04T00:37:29.606Z,13.84
2017-04-04T00:38:00.997Z,13.74
2017-04-04T00:38:22.739Z,13.82
2017-04-04T00:39:25.360Z,13.95
2017-04-04T00:39:51.841Z,13.56
2017-04-04T00:40:18.320Z,13.20
2017-04-04T00:40:40.068Z,13.06
2017-04-04T00:41:01.791Z,13.18
2017-04-04T00:41:23.485Z,13.24
2017-04-04T00:41:50.055Z,13.33
2017-04-04T00:42:11.764Z,13.41
2017-04-04T00:42:33.541Z,13.48
2017-04-04T00:43:09.685Z,13.55
2017-04-04T00:43:31.970Z,13.64
2017-04-04T00:43:53.679Z,13.63
2017-04-04T00:44:15.393Z,13.64
2017-04-04T00:44:51.440Z,13.63
2017-04-04T00:45:13.793Z,13.61
2017-04-04T00:45:35.497Z,13.61
2017-04-04T00:46:02.066Z,13.63
2017-04-04T00:46:23.828Z,13.68
2017-04-04T00:46:45.603Z,13.76
2017-04-04T00:47:07.310Z,13.74
2017-04-04T00:47:29.107Z,13.73
2017-04-04T00:47:55.635Z,13.74
2017-04-04T00:48:17.299Z,13.78
2017-04-04T00:48:43.832Z,13.75
2017-04-04T00:49:05.538Z,13.73
2017-04-04T00:49:32.045Z,13.69
2017-04-04T00:49:53.771Z,13.77
2017-04-04T00:50:20.308Z,13.71
2017-04-04T00:50:42.013Z,13.64
2017-04-04T00:51:03.696Z,13.68
2017-04-04T00:51:30.189Z,13.60
2017-04-04T00:51:51.939Z,13.58
2017-04-04T00:52:18.413Z,13.63
2017-04-04T00:52:40.127Z,13.70
2017-04-04T00:53:06.677Z,13.63
2017-04-04T00:53:28.374Z,13.45
2017-04-04T00:53:59.633Z,13.44
2017-04-04T00:54:21.393Z,13.44
2017-04-04T00:54:57.443Z,13.41
2017-04-04T00:55:19.701Z,13.45
2017-04-04T00:56:22.213Z,13.54
2017-04-04T00:56:43.917Z,13.68
2017-04-04T00:57:05.644Z,13.66
2017-04-04T00:57:36.886Z,13.74
2017-04-04T00:57:58.607Z,13.67
2017-04-04T00:58:25.109Z,13.65
2017-04-04T00:58:46.873Z,13.65
2017-04-04T00:59:49.385Z,13.41
2017-04-04T01:00:20.705Z,13.54
2017-04-04T01:01:23.249Z,13.62
2017-04-04T01:01:44.964Z,13.70
2017-04-04T01:02:11.442Z,13.68
2017-04-04T01:02:33.176Z,13.70
2017-04-04T01:02:54.959Z,13.58
2017-04-04T01:03:21.450Z,13.43
2017-04-04T01:03:43.163Z,13.37
2017-04-04T01:04:09.720Z,13.31
2017-04-04T01:04:31.442Z,13.39
2017-04-04T01:04:53.150Z,13.30
2017-04-04T01:05:29.330Z,13.38
2017-04-04T01:05:51.602Z,13.39
2017-04-04T01:06:13.319Z,13.41
2017-04-04T01:06:49.492Z,13.41
2017-04-04T01:07:11.796Z,13.52
2017-04-04T01:07:33.645Z,13.48
2017-04-04T01:08:04.971Z,13.29
2017-04-04T01:08:26.773Z,13.29
2017-04-04T01:08:48.568Z,13.23
2017-04-04T01:09:24.627Z,13.35
2017-04-04T01:09:46.846Z,13.50
2017-04-04T01:10:08.611Z,13.43
2017-04-04T01:10:44.667Z,13.18
2017-04-04T01:11:06.969Z,13.20
2017-04-04T01:11:33.519Z,13.20
2017-04-04T01:11:59.994Z,13.35
2017-04-04T01:12:21.691Z,13.43
2017-04-04T01:12:53.088Z,13.38
2017-04-04T01:13:14.806Z,13.44
2017-04-04T01:13:46.098Z,13.49
2017-04-04T01:14:07.894Z,13.51
2017-04-04T01:14:29.600Z,13.50
2017-04-04T01:14:51.303Z,13.47
2017-04-04T01:15:13.019Z,13.38
2017-04-04T01:15:39.628Z,13.22
2017-04-04T01:16:01.324Z,13.00
2017-04-04T01:16:23.031Z,13.03
2017-04-04T01:16:49.567Z,12.95
2017-04-04T01:17:11.343Z,12.94
2017-04-04T01:17:42.619Z,13.01
2017-04-04T01:18:04.335Z,13.08
2017-04-04T01:18:30.903Z,13.18
2017-04-04T01:18:52.620Z,13.18
2017-04-04T01:19:19.106Z,13.20
2017-04-04T01:19:40.795Z,13.15
2017-04-04T01:20:02.577Z,13.01
2017-04-04T01:20:33.872Z,13.05
2017-04-04T01:20:55.586Z,13.12
2017-04-04T01:21:26.854Z,13.07
2017-04-04T01:21:48.552Z,12.97
2017-04-04T01:22:10.261Z,12.87
2017-04-04T01:22:31.967Z,12.82
2017-04-04T01:22:53.738Z,12.88
2017-04-04T01:23:15.426Z,12.93
2017-04-04T01:23:37.129Z,12.92
2017-04-04T01:23:58.843Z,12.83
2017-04-04T01:24:59.543Z,12.97
2017-04-04T01:25:26.020Z,12.85
2017-04-04T01:25:47.792Z,12.95
2017-04-04T01:26:09.508Z,12.89
2017-04-04T01:26:31.251Z,12.99
2017-04-04T01:27:02.469Z,13.04
2017-04-04T01:27:24.155Z,13.12
2017-04-04T01:27:45.866Z,13.08
2017-04-04T01:28:19.928Z,13.03
2017-04-04T01:28:46.441Z,13.07
2017-04-04T01:29:08.196Z,13.03
2017-04-04T01:29:29.987Z,13.14
2017-04-04T01:29:56.474Z,12.88
2017-04-04T01:30:18.214Z,12.77
2017-04-04T01:30:39.967Z,12.81
2017-04-04T01:31:01.692Z,12.85
2017-04-04T01:31:23.386Z,12.87
2017-04-04T01:31:45.077Z,12.67
2017-04-04T01:32:06.841Z,12.44
2017-04-04T01:32:28.554Z,12.15
2017-04-04T01:32:50.284Z,11.83
2017-04-04T01:33:16.809Z,11.95
2017-04-04T01:33:38.519Z,11.86
2017-04-04T01:34:00.215Z,11.72
2017-04-04T01:34:26.696Z,11.61
2017-04-04T01:34:48.397Z,11.55
2017-04-04T01:35:10.094Z,11.66
2017-04-04T01:35:31.810Z,11.65
2017-04-04T01:35:53.497Z,11.71
2017-04-04T01:36:56.021Z,12.16
2017-04-04T01:37:32.190Z,11.96
2017-04-04T01:37:54.457Z,12.05
2017-04-04T01:38:30.502Z,12.20
2017-04-04T01:38:52.701Z,12.33
2017-04-04T01:39:28.753Z,12.48
2017-04-04T01:39:54.003Z,12.49
2017-04-04T01:40:25.336Z,12.02
2017-04-04T01:40:47.039Z,11.87
2017-04-04T01:41:23.095Z,11.74
2017-04-04T01:41:45.396Z,11.59
2017-04-04T01:42:07.098Z,11.79
2017-04-04T01:42:43.133Z,11.93
2017-04-04T01:43:05.452Z,12.14
2017-04-04T01:43:41.506Z,12.40
2017-04-04T01:44:03.652Z,12.44
2017-04-04T01:45:10.934Z,12.64
2017-04-04T01:45:32.666Z,12.59
2017-04-04T01:46:03.976Z,12.63
2017-04-04T01:46:25.722Z,12.77
2017-04-04T01:46:47.425Z,12.81
2017-04-04T01:47:11.994Z,12.77
2017-04-04T01:47:33.702Z,12.87
2017-04-04T01:48:07.266Z,12.68
2017-04-04T01:48:38.489Z,12.73
2017-04-04T01:49:00.182Z,12.82
2017-04-04T01:49:21.890Z,12.68
2017-04-04T01:49:43.599Z,12.54
2017-04-04T01:50:05.398Z,12.34
2017-04-04T01:50:27.116Z,12.14
2017-04-04T01:50:53.612Z,11.82
2017-04-04T01:51:15.300Z,11.56
2017-04-04T01:51:37.095Z,11.40
2017-04-04T01:52:03.640Z,11.41
2017-04-04T01:52:25.345Z,11.62
2017-04-04T01:52:51.939Z,11.81
2017-04-04T01:53:13.642Z,12.00
2017-04-04T01:53:40.108Z,12.12
2017-04-04T01:54:01.885Z,12.10
2017-04-04T01:54:28.378Z,12.19
2017-04-04T01:54:50.073Z,12.36
2017-04-04T01:55:16.618Z,12.34
2017-04-04T01:55:38.314Z,12.46
2017-04-04T01:56:04.876Z,12.53
2017-04-04T01:56:26.574Z,12.51
2017-04-04T01:56:48.390Z,12.48
2017-04-04T01:57:14.877Z,12.60
2017-04-04T01:57:36.575Z,12.63
2017-04-04T01:58:03.130Z,12.72
2017-04-04T01:58:24.860Z,12.81
2017-04-04T01:58:51.423Z,12.80
2017-04-04T01:59:13.202Z,12.65
2017-04-04T01:59:39.796Z,12.24
2017-04-04T02:00:01.488Z,12.06
2017-04-04T02:00:23.203Z,12.15
2017-04-04T02:00:49.770Z,12.38
2017-04-04T02:01:11.457Z,12.56
2017-04-04T02:01:33.175Z,12.65
2017-04-04T02:01:54.892Z,12.63
2017-04-04T02:02:16.669Z,12.62
2017-04-04T02:02:38.368Z,12.70
2017-04-04T02:03:09.625Z,12.58
2017-04-04T02:03:31.400Z,12.32
2017-04-04T02:03:53.140Z,12.19
2017-04-04T02:04:19.692Z,12.27
2017-04-04T02:04:41.484Z,12.38
2017-04-04T02:05:03.267Z,12.45
2017-04-04T02:05:24.966Z,12.44
2017-04-04T02:05:46.669Z,12.46
2017-04-04T02:06:13.241Z,12.52
2017-04-04T02:06:34.945Z,12.42
2017-04-04T02:06:56.668Z,12.37
2017-04-04T02:07:23.246Z,12.37
2017-04-04T02:07:47.903Z,12.53
2017-04-04T02:08:19.156Z,12.59
2017-04-04T02:08:40.972Z,12.52
2017-04-04T02:10:29.128Z,12.47
2017-04-04T02:10:50.832Z,12.41
2017-04-04T02:11:22.080Z,12.57
2017-04-04T02:11:43.871Z,12.70
2017-04-04T02:12:05.607Z,12.88
2017-04-04T02:12:36.863Z,12.87
2017-04-04T02:12:58.643Z,12.78
2017-04-04T02:13:20.349Z,12.81
2017-04-04T02:13:42.060Z,12.73
2017-04-04T02:14:03.763Z,12.71
2017-04-04T02:14:30.368Z,12.52
2017-04-04T02:14:52.068Z,12.28
2017-04-04T02:15:28.089Z,11.97
2017-04-04T02:15:50.444Z,12.05
2017-04-04T02:16:57.744Z,12.41
2017-04-04T02:17:19.585Z,12.44
2017-04-04T02:17:41.269Z,12.48
2017-04-04T02:18:12.520Z,12.57
2017-04-04T02:18:34.290Z,12.33
2017-04-04T02:18:55.981Z,12.05
2017-04-04T02:19:17.698Z,12.00
2017-04-04T02:19:39.391Z,12.10
2017-04-04T02:20:01.177Z,12.27
2017-04-04T02:20:32.442Z,12.41
2017-04-04T02:20:54.150Z,12.36
2017-04-04T02:21:15.851Z,12.44
2017-04-04T02:21:37.568Z,12.44
2017-04-04T02:21:59.258Z,12.52
2017-04-04T02:22:21.006Z,12.54
2017-04-04T02:22:47.513Z,12.48
2017-04-04T02:23:09.228Z,12.51
2017-04-04T02:23:30.926Z,12.57
2017-04-04T02:23:57.530Z,12.55
2017-04-04T02:24:19.259Z,12.54
2017-04-04T02:24:40.951Z,12.56
2017-04-04T02:25:07.430Z,12.60
2017-04-04T02:25:29.215Z,12.82
2017-04-04T02:25:50.930Z,12.74
2017-04-04T02:26:17.491Z,12.39
2017-04-04T02:26:39.279Z,12.33
2017-04-04T02:27:01.064Z,12.18
2017-04-04T02:27:32.321Z,12.20
2017-04-04T02:27:54.013Z,12.19
2017-04-04T02:28:56.590Z,12.17
2017-04-04T02:29:27.831Z,11.81
2017-04-04T02:29:49.534Z,11.94
2017-04-04T02:30:11.366Z,12.05
2017-04-04T02:30:33.082Z,12.14
2017-04-04T02:30:54.795Z,12.19
2017-04-04T02:31:16.508Z,12.31
2017-04-04T02:31:38.318Z,12.35
2017-04-04T02:32:00.011Z,12.41
2017-04-04T02:32:21.745Z,12.36
2017-04-04T02:32:48.306Z,12.29
2017-04-04T02:33:09.997Z,12.33
2017-04-04T02:33:36.485Z,12.34
2017-04-04T02:33:58.220Z,12.32
2017-04-04T02:34:24.786Z,12.43
2017-04-04T02:34:46.493Z,12.51
2017-04-04T02:35:08.221Z,12.55
2017-04-04T02:36:15.593Z,12.53
2017-04-04T02:36:37.306Z,12.50
2017-04-04T02:36:59.009Z,12.52
2017-04-04T02:37:30.347Z,12.60
2017-04-04T02:37:52.058Z,12.60
2017-04-04T02:38:13.753Z,12.54
2017-04-04T02:38:45.114Z,12.54
2017-04-04T02:39:06.817Z,12.57
2017-04-04T02:39:28.538Z,12.55
2017-04-04T02:39:50.245Z,12.54
2017-04-04T02:40:12.061Z,12.60
2017-04-04T02:40:33.857Z,12.54
2017-04-04T02:40:55.676Z,12.48
2017-04-04T02:41:17.425Z,12.44
2017-04-04T02:41:39.117Z,12.36
2017-04-04T02:42:00.920Z,12.39
2017-04-04T02:42:22.626Z,12.32
2017-04-04T02:42:44.361Z,12.41
2017-04-04T02:43:20.400Z,12.44
2017-04-04T02:43:42.740Z,12.45
2017-04-04T02:44:45.344Z,12.64
2017-04-04T02:45:07.078Z,12.70
2017-04-04T02:45:38.334Z,12.67
2017-04-04T02:46:00.128Z,12.68
2017-04-04T02:46:21.848Z,12.68
2017-04-04T02:46:53.103Z,12.49
2017-04-04T02:47:14.914Z,12.53
2017-04-04T02:47:41.401Z,12.49
2017-04-04T02:48:03.154Z,12.47
2017-04-04T02:48:24.934Z,12.43
2017-04-04T02:48:51.414Z,12.48
2017-04-04T02:49:13.134Z,12.47
2017-04-04T02:50:20.477Z,12.52
2017-04-04T02:50:42.178Z,12.62
2017-04-04T02:51:03.864Z,12.60
2017-04-04T02:51:30.443Z,12.64
2017-04-04T02:51:52.181Z,12.60
2017-04-04T02:52:13.891Z,12.60
2017-04-04T02:52:35.601Z,12.46
2017-04-04T02:52:57.392Z,12.35
2017-04-04T02:53:23.865Z,12.34
2017-04-04T02:53:45.555Z,12.39
2017-04-04T02:54:12.105Z,12.40
2017-04-04T02:54:33.807Z,12.51
2017-04-04T02:55:00.275Z,12.39
2017-04-04T02:55:26.833Z,12.41
2017-04-04T02:55:48.547Z,12.29
2017-04-04T02:56:15.018Z,12.30
2017-04-04T02:56:36.725Z,12.37
2017-04-04T02:57:03.285Z,12.55
2017-04-04T02:57:25.024Z,12.59
2017-04-04T02:57:56.276Z,12.48
2017-04-04T02:58:18.079Z,12.36
2017-04-04T02:58:39.777Z,12.31
2017-04-04T02:59:06.256Z,12.24
2017-04-04T02:59:28.045Z,12.06
2017-04-04T02:59:49.755Z,12.14
2017-04-04T03:00:11.467Z,12.20
2017-04-04T03:00:33.165Z,12.39
2017-04-04T03:00:54.947Z,12.48
2017-04-04T03:01:16.655Z,12.43
2017-04-04T03:01:41.303Z,12.32
2017-04-04T03:02:03.107Z,12.25
2017-04-04T03:02:24.808Z,12.25
2017-04-04T03:02:46.608Z,12.30
2017-04-04T03:03:17.864Z,12.48
2017-04-04T03:03:39.570Z,12.49
2017-04-04T03:04:15.595Z,12.51
2017-04-04T03:04:37.933Z,12.49
2017-04-04T03:05:40.539Z,12.59
2017-04-04T03:06:02.249Z,12.43
2017-04-04T03:06:23.940Z,12.33
2017-04-04T03:06:55.278Z,12.35
2017-04-04T03:07:17.016Z,12.32
2017-04-04T03:07:38.726Z,12.36
2017-04-04T03:08:41.324Z,12.43
2017-04-04T03:09:12.594Z,12.43
2017-04-04T03:09:34.303Z,12.53
2017-04-04T03:10:05.615Z,12.63
2017-04-04T03:10:29.988Z,12.56
2017-04-04T03:10:56.481Z,12.54
2017-04-04T03:11:18.243Z,12.42
2017-04-04T03:11:44.728Z,12.42
2017-04-04T03:12:06.453Z,12.35
2017-04-04T03:12:32.976Z,12.40
2017-04-04T03:13:09.003Z,12.39
2017-04-04T03:13:31.239Z,12.28
2017-04-04T03:14:07.400Z,12.28
2017-04-04T03:14:29.609Z,12.23
2017-04-04T03:15:05.656Z,12.35
2017-04-04T03:15:27.838Z,12.37
2017-04-04T03:15:54.318Z,12.22
2017-04-04T03:16:30.352Z,12.21
2017-04-04T03:16:52.642Z,12.21
2017-04-04T03:17:14.380Z,12.25
2017-04-04T03:17:40.869Z,12.31
2017-04-04T03:18:02.572Z,12.33
2017-04-04T03:18:24.325Z,12.41
2017-04-04T03:18:46.022Z,12.30
2017-04-04T03:19:07.735Z,12.37
2017-04-04T03:19:34.282Z,12.38
2017-04-04T03:19:55.973Z,12.20
2017-04-04T03:20:27.236Z,12.03
2017-04-04T03:20:51.875Z,12.00
2017-04-04T03:21:18.357Z,11.84
2017-04-04T03:21:42.264Z,11.80
2017-04-04T03:22:13.630Z,11.66
2017-04-04T03:22:35.344Z,11.75
2017-04-04T03:23:01.813Z,11.83
2017-04-04T03:23:23.509Z,11.96
2017-04-04T03:23:50.129Z,12.01
2017-04-04T03:24:11.823Z,12.00
2017-04-04T03:24:33.530Z,12.03
2017-04-04T03:25:40.814Z,11.80
2017-04-04T03:26:02.545Z,11.85
2017-04-04T03:26:33.833Z,11.87
2017-04-04T03:26:55.525Z,11.87
2017-04-04T03:27:22.031Z,11.89
2017-04-04T03:27:43.720Z,11.93
2017-04-04T03:28:10.280Z,11.95
2017-04-04T03:28:31.985Z,11.91
2017-04-04T03:28:58.460Z,11.74
2017-04-04T03:29:20.152Z,11.86
2017-04-04T03:29:46.690Z,11.87
2017-04-04T03:30:08.400Z,12.01
2017-04-04T03:30:30.115Z,11.99
2017-04-04T03:31:01.443Z,11.96
2017-04-04T03:31:27.986Z,12.06
2017-04-04T03:31:54.552Z,12.17
2017-04-04T03:32:16.302Z,12.19
2017-04-04T03:32:38.110Z,12.05
2017-04-04T03:33:40.626Z,11.79
2017-04-04T03:34:02.311Z,11.88
2017-04-04T03:34:28.796Z,12.03
2017-04-04T03:34:50.599Z,12.00
2017-04-04T03:35:53.118Z,12.04
2017-04-04T03:36:24.431Z,12.04
2017-04-04T03:36:46.133Z,12.01
2017-04-04T03:37:12.621Z,12.05
2017-04-04T03:37:34.354Z,12.07
2017-04-04T03:38:00.897Z,11.56
2017-04-04T03:38:22.617Z,11.60
2017-04-04T03:38:49.090Z,11.65
2017-04-04T03:39:10.792Z,11.48
2017-04-04T03:39:37.319Z,11.27
2017-04-04T03:39:59.012Z,11.19
2017-04-04T03:40:25.486Z,11.42
2017-04-04T03:40:47.191Z,11.56
2017-04-04T03:41:08.987Z,11.60
2017-04-04T03:41:35.497Z,11.64
2017-04-04T03:41:57.204Z,11.61
2017-04-04T03:42:23.743Z,11.51
2017-04-04T03:42:45.479Z,11.46
2017-04-04T03:43:12.109Z,11.26
2017-04-04T03:43:33.692Z,11.30
2017-04-04T03:44:00.245Z,11.33
2017-04-04T03:44:26.765Z,11.32
2017-04-04T03:44:53.340Z,11.37
2017-04-04T03:45:15.104Z,11.59
2017-04-04T03:45:36.815Z,11.67
2017-04-04T03:46:12.869Z,11.75
2017-04-04T03:46:35.114Z,11.86
2017-04-04T03:47:42.420Z,11.79
2017-04-04T03:48:04.177Z,11.52
2017-04-04T03:48:25.888Z,11.36
2017-04-04T03:48:52.366Z,11.07
2017-04-04T03:49:14.084Z,10.87
2017-04-04T03:49:35.884Z,10.70
2017-04-04T03:50:02.361Z,10.74
2017-04-04T03:50:24.082Z,10.73
2017-04-04T03:51:31.367Z,11.08
2017-04-04T03:51:53.057Z,11.16
2017-04-04T03:52:24.447Z,11.33
2017-04-04T03:52:46.188Z,11.17
2017-04-04T03:53:17.455Z,11.06
2017-04-04T03:53:39.228Z,11.23
2017-04-04T03:54:05.704Z,11.22
2017-04-04T03:54:27.403Z,11.32
2017-04-04T03:54:53.934Z,11.37
2017-04-04T03:55:15.624Z,11.49
2017-04-04T03:55:42.120Z,11.61
2017-04-04T03:56:03.918Z,11.68
2017-04-04T03:56:30.474Z,11.75
2017-04-04T03:56:52.295Z,11.80
2017-04-04T03:57:23.628Z,11.67
2017-04-04T03:57:45.403Z,11.56
2017-04-04T03:58:21.457Z,11.34
2017-04-04T03:58:46.733Z,11.10
2017-04-04T03:59:49.252Z,10.92
2017-04-04T04:00:15.781Z,11.11
2017-04-04T04:00:37.491Z,11.14
2017-04-04T04:00:59.214Z,11.33
2017-04-04T04:01:20.947Z,11.41
2017-04-04T04:01:47.666Z,11.43
2017-04-04T04:02:09.360Z,11.48
2017-04-04T04:02:35.850Z,11.58
2017-04-04T04:02:57.547Z,11.66
2017-04-04T04:03:24.085Z,11.74
2017-04-04T04:03:45.799Z,11.76
2017-04-04T04:04:12.267Z,11.83
2017-04-04T04:04:34.012Z,11.84
2017-04-04T04:04:55.800Z,11.81
2017-04-04T04:05:31.847Z,11.79
2017-04-04T04:05:59.935Z,11.82
2017-04-04T04:06:21.713Z,11.84
2017-04-04T04:06:43.418Z,11.77
2017-04-04T04:07:05.100Z,11.78
2017-04-04T04:07:26.791Z,11.83
2017-04-04T04:07:49.590Z,11.92
2017-04-04T04:08:11.333Z,11.83
2017-04-04T04:08:37.837Z,11.68
2017-04-04T04:08:59.557Z,11.56
2017-04-04T04:09:26.091Z,11.63
2017-04-04T04:09:47.782Z,11.59
2017-04-04T04:10:09.488Z,11.60
2017-04-04T04:10:36.062Z,11.73
2017-04-04T04:10:57.748Z,11.76
2017-04-04T04:11:19.476Z,11.79
2017-04-04T04:11:45.967Z,11.80
2017-04-04T04:12:07.679Z,11.84
2017-04-04T04:12:38.928Z,11.81
2017-04-04T04:13:00.617Z,11.80
2017-04-04T04:13:22.438Z,11.69
2017-04-04T04:13:48.912Z,11.73
2017-04-04T04:14:10.617Z,11.69
2017-04-04T04:14:41.862Z,11.53
2017-04-04T04:15:03.560Z,11.65
2017-04-04T04:15:34.819Z,11.76
2017-04-04T04:15:56.590Z,11.75
2017-04-04T04:16:27.837Z,11.67
2017-04-04T04:16:49.555Z,11.81
2017-04-04T04:17:20.881Z,11.77
2017-04-04T04:17:42.584Z,11.84
2017-04-04T04:18:13.856Z,11.62
2017-04-04T04:18:35.678Z,11.56
2017-04-04T04:19:06.925Z,11.42
2017-04-04T04:19:28.639Z,11.15
2017-04-04T04:19:50.401Z,11.27
2017-04-04T04:20:16.893Z,11.41
2017-04-04T04:20:38.588Z,11.50
2017-04-04T04:21:05.158Z,11.51
2017-04-04T04:21:26.877Z,11.54
2017-04-04T04:21:58.237Z,11.44
2017-04-04T04:22:19.946Z,11.34
2017-04-04T04:23:27.219Z,11.40
2017-04-04T04:23:48.973Z,11.50
2017-04-04T04:24:15.458Z,11.38
2017-04-04T04:24:37.152Z,11.03
2017-04-04T04:25:01.085Z,11.05
2017-04-04T04:25:22.806Z,11.10
2017-04-04T04:25:44.605Z,11.08
2017-04-04T04:26:15.866Z,10.78
2017-04-04T04:26:37.573Z,10.75
2017-04-04T04:27:04.128Z,10.96
2017-04-04T04:27:25.822Z,11.16
2017-04-04T04:27:52.315Z,11.12
2017-04-04T04:28:14.134Z,11.07
2017-04-04T04:29:16.634Z,11.30
2017-04-04T04:29:38.362Z,11.33
2017-04-04T04:30:00.080Z,11.41
2017-04-04T04:30:31.335Z,11.26
2017-04-04T04:30:53.128Z,11.19
2017-04-04T04:31:19.648Z,11.22
2017-04-04T04:31:41.372Z,11.15
2017-04-04T04:32:07.898Z,11.23
2017-04-04T04:32:29.645Z,11.26
2017-04-04T04:32:56.159Z,10.88
2017-04-04T04:33:17.878Z,10.78
2017-04-04T04:33:44.462Z,10.63
2017-04-04T04:34:06.229Z,10.66
2017-04-04T04:35:08.757Z,10.47
2017-04-04T04:35:30.462Z,10.34
2017-04-04T04:36:06.506Z,10.63
2017-04-04T04:36:28.755Z,10.71
2017-04-04T04:36:50.478Z,10.61
2017-04-04T04:37:12.194Z,10.37
2017-04-04T04:37:38.745Z,10.34
2017-04-04T04:38:00.474Z,10.41
2017-04-04T04:38:22.185Z,10.57
2017-04-04T04:38:53.490Z,10.82
2017-04-04T04:39:15.216Z,10.82
2017-04-04T04:39:46.478Z,10.65
2017-04-04T04:40:08.250Z,10.56
2017-04-04T04:40:39.529Z,10.85
2017-04-04T04:41:01.357Z,11.04
2017-04-04T04:41:32.661Z,11.15
2017-04-04T04:41:54.399Z,11.15
2017-04-04T04:42:25.661Z,11.04
2017-04-04T04:42:47.445Z,11.02
2017-04-04T04:43:09.141Z,10.98
2017-04-04T04:43:35.623Z,10.83
2017-04-04T04:43:57.422Z,10.60
2017-04-04T04:44:36.337Z,10.26
2017-04-04T04:44:57.893Z,10.25
2017-04-04T04:45:29.251Z,10.47
2017-04-04T04:45:50.950Z,10.64
2017-04-04T04:46:17.441Z,10.70
2017-04-04T04:46:39.168Z,10.88
2017-04-04T04:47:00.966Z,10.94
2017-04-04T04:47:32.232Z,10.92
2017-04-04T04:47:53.935Z,10.96
2017-04-04T04:48:25.270Z,11.12
2017-04-04T04:48:46.976Z,10.96
2017-04-04T04:49:13.456Z,10.99
2017-04-04T04:49:35.178Z,11.11
2017-04-04T04:50:06.545Z,11.27
2017-04-04T04:50:28.266Z,11.34
2017-04-04T04:50:59.521Z,11.46
2017-04-04T04:51:21.291Z,11.49
2017-04-04T04:52:23.793Z,11.60
2017-04-04T04:52:55.108Z,11.50
2017-04-04T04:53:16.818Z,11.42
2017-04-04T04:53:38.527Z,11.41
2017-04-04T04:54:00.236Z,11.40
2017-04-04T04:54:22.022Z,11.34
2017-04-04T04:54:43.730Z,11.38
2017-04-04T04:55:05.438Z,11.47
2017-04-04T04:55:27.137Z,11.54
2017-04-04T04:55:53.741Z,11.46
2017-04-04T04:56:15.444Z,11.47
2017-04-04T04:56:37.162Z,11.16
2017-04-04T04:57:08.480Z,11.11
2017-04-04T04:57:30.167Z,11.02
2017-04-04T04:58:01.510Z,10.53
2017-04-04T04:58:23.289Z,10.40
2017-04-04T04:58:45.007Z,10.30
2017-04-04T04:59:06.734Z,10.34
2017-04-04T04:59:28.491Z,10.22
2017-04-04T05:00:30.983Z,10.35
2017-04-04T05:01:38.316Z,10.29
2017-04-04T05:02:00.040Z,10.38
2017-04-04T05:02:26.537Z,10.59
2017-04-04T05:02:48.340Z,10.81
2017-04-04T05:03:50.883Z,11.09
2017-04-04T05:04:12.745Z,11.20
2017-04-04T05:05:05.814Z,11.17
2017-04-04T05:05:37.208Z,11.25
2017-04-04T05:05:58.924Z,11.39
2017-04-04T05:06:30.179Z,11.22
2017-04-04T05:06:51.965Z,11.04
2017-04-04T05:07:13.706Z,11.12
2017-04-04T05:07:40.174Z,10.95
2017-04-04T05:08:01.945Z,10.88
2017-04-04T05:08:23.666Z,10.60
2017-04-04T05:08:45.375Z,10.29
2017-04-04T05:09:07.119Z,10.29
2017-04-04T05:09:43.286Z,10.48
2017-04-04T05:10:05.660Z,10.61
2017-04-04T05:10:32.156Z,10.65
2017-04-04T05:10:58.710Z,10.74
2017-04-04T05:11:20.448Z,10.79
2017-04-04T05:11:42.396Z,10.93
2017-04-04T05:12:08.968Z,10.95
2017-04-04T05:12:30.756Z,10.97
2017-04-04T05:14:05.670Z,10.87
2017-04-04T05:14:27.391Z,10.68
2017-04-04T05:14:49.117Z,10.47
2017-04-04T05:15:10.812Z,10.39
2017-04-04T05:15:32.543Z,10.48
2017-04-04T05:15:54.295Z,10.56
2017-04-04T05:16:56.809Z,10.83
2017-04-04T05:17:18.568Z,10.95
2017-04-04T05:17:40.331Z,11.04
2017-04-04T05:18:02.067Z,11.05
2017-04-04T05:18:33.401Z,11.07
2017-04-04T05:18:56.223Z,11.09
2017-04-04T05:19:58.742Z,11.19
2017-04-04T05:20:20.492Z,11.17
2017-04-04T05:20:42.261Z,10.99
2017-04-04T05:21:04.043Z,10.73
2017-04-04T05:21:25.903Z,10.59
2017-04-04T05:21:47.641Z,10.48
2017-04-04T05:22:54.944Z,10.57
2017-04-04T05:23:16.663Z,10.37
2017-04-04T05:23:38.402Z,10.16
2017-04-04T05:24:04.893Z,9.95
2017-04-04T05:24:26.688Z,10.00
2017-04-04T05:24:53.204Z,10.19
2017-04-04T05:25:14.983Z,10.19
2017-04-04T05:25:41.502Z,10.15
2017-04-04T05:26:04.306Z,10.07
2017-04-04T05:26:30.959Z,10.31
2017-04-04T05:26:52.774Z,10.32
2017-04-04T05:27:19.298Z,10.35
2017-04-04T05:27:41.066Z,10.34
2017-04-04T05:28:07.607Z,10.20
2017-04-04T05:28:29.395Z,10.17
2017-04-04T05:28:51.248Z,10.32
2017-04-04T05:29:17.877Z,10.39
2017-04-04T05:29:39.660Z,10.55
2017-04-04T05:30:42.165Z,10.35
2017-04-04T05:31:44.678Z,10.41
2017-04-04T05:33:16.990Z,9.74
2017-04-04T05:33:38.722Z,9.78
2017-04-04T05:34:46.110Z,10.11
2017-04-04T05:35:07.889Z,9.99
2017-04-04T05:35:34.394Z,9.96
2017-04-04T05:35:58.859Z,10.08
2017-04-04T05:37:06.140Z,10.11
2017-04-04T05:37:27.847Z,9.95
2017-04-04T05:38:33.401Z,10.04
2017-04-04T05:39:02.665Z,10.20
2017-04-04T05:39:24.399Z,10.42
2017-04-04T05:39:50.874Z,10.51
2017-04-04T05:40:12.719Z,10.59
2017-04-04T05:40:34.545Z,10.61
2017-04-04T05:41:05.796Z,10.54
2017-04-04T05:41:27.487Z,10.45
2017-04-04T05:42:20.791Z,10.51
2017-04-04T05:42:42.596Z,10.55
2017-04-04T05:43:04.305Z,10.56
2017-04-04T05:43:26.131Z,10.57
2017-04-04T05:43:47.877Z,10.50
2017-04-04T05:44:09.647Z,10.67
2017-04-04T05:44:31.347Z,10.58
2017-04-04T05:44:53.223Z,10.39
2017-04-04T05:45:14.996Z,10.45